createdAt,value
2018-12-18T00:00:03.516Z,34.80
2018-12-18T00:01:03.530Z,34.10
2018-12-18T00:02:03.545Z,34.80
2018-12-18T00:03:03.523Z,33.80
2018-12-18T00:04:03.501Z,34.00
2018-12-18T00:05:03.459Z,35.70
2018-12-18T00:06:03.522Z,35.90
2018-12-18T00:07:03.462Z,34.50
2018-12-18T00:08:03.525Z,34.20
2018-12-18T00:09:03.438Z,35.80
2018-12-18T00:10:03.435Z,34.00
2018-12-18T00:11:03.401Z,35.10
2018-12-18T00:12:03.414Z,34.70
2018-12-18T00:13:03.388Z,33.40
2018-12-18T00:14:03.385Z,32.40
2018-12-18T00:15:03.389Z,32.40
2018-12-18T00:16:03.375Z,30.60
2018-12-18T00:17:03.737Z,31.20
2018-12-18T00:18:03.358Z,31.70
2018-12-18T00:19:03.334Z,30.30
2018-12-18T00:20:03.319Z,29.80
2018-12-18T00:21:03.301Z,30.40
2018-12-18T00:22:03.341Z,30.80
2018-12-18T00:23:03.371Z,29.40
2018-12-18T00:24:03.284Z,29.70
2018-12-18T00:25:03.276Z,29.40
2018-12-18T00:26:03.286Z,29.80
2018-12-18T00:27:03.280Z,29.30
2018-12-18T00:28:03.239Z,29.00
2018-12-18T00:29:03.229Z,29.10
2018-12-18T00:30:03.245Z,29.10
2018-12-18T00:31:03.190Z,28.50
2018-12-18T00:32:03.224Z,29.20
2018-12-18T00:33:03.221Z,29.30
2018-12-18T00:34:03.153Z,28.10
2018-12-18T00:35:03.180Z,28.70
2018-12-18T00:36:03.154Z,28.80
2018-12-18T00:37:03.167Z,28.30
2018-12-18T00:38:03.158Z,28.60
2018-12-18T00:39:03.105Z,29.20
2018-12-18T00:40:03.137Z,28.70
2018-12-18T00:41:03.126Z,28.10
2018-12-18T00:42:03.164Z,28.10
2018-12-18T00:43:03.085Z,28.30
2018-12-18T00:44:03.073Z,28.00
2018-12-18T00:45:03.043Z,28.10
2018-12-18T00:46:03.098Z,27.40
2018-12-18T00:47:03.015Z,27.90
2018-12-18T00:48:03.030Z,27.50
2018-12-18T00:49:03.022Z,28.40
2018-12-18T00:50:03.011Z,28.00
2018-12-18T00:51:03.034Z,27.80
2018-12-18T00:52:02.977Z,28.10
2018-12-18T00:53:02.973Z,27.50
2018-12-18T00:54:02.957Z,28.90
2018-12-18T00:55:02.964Z,27.20
2018-12-18T00:56:03.015Z,27.50
2018-12-18T00:57:02.940Z,27.70
2018-12-18T00:58:02.923Z,27.70
2018-12-18T00:59:02.971Z,27.40
2018-12-18T01:00:02.928Z,27.00
2018-12-18T01:01:03.639Z,26.10
2018-12-18T01:02:02.951Z,27.70
2018-12-18T01:03:03.750Z,26.90
2018-12-18T01:04:02.836Z,26.50
2018-12-18T01:05:02.844Z,27.20
2018-12-18T01:06:03.143Z,27.30
2018-12-18T01:07:02.835Z,27.00
2018-12-18T01:08:02.847Z,26.80
2018-12-18T01:09:02.798Z,26.30
2018-12-18T01:10:02.868Z,27.00
2018-12-18T01:11:02.797Z,27.10
2018-12-18T01:12:02.771Z,27.00
2018-12-18T01:13:02.783Z,26.30
2018-12-18T01:14:02.800Z,26.20
2018-12-18T01:15:02.760Z,25.70
2018-12-18T01:16:02.736Z,25.80
2018-12-18T01:17:02.719Z,25.90
2018-12-18T01:18:02.708Z,26.00
2018-12-18T01:19:02.733Z,25.40
2018-12-18T01:20:02.705Z,26.10
2018-12-18T01:21:02.720Z,25.40
2018-12-18T01:22:02.663Z,25.70
2018-12-18T01:23:02.667Z,25.60
2018-12-18T01:24:02.656Z,25.70
2018-12-18T01:25:02.659Z,26.20
2018-12-18T01:26:02.646Z,25.50
2018-12-18T01:27:02.659Z,26.10
2018-12-18T01:28:02.648Z,25.90
2018-12-18T01:29:02.603Z,25.50
2018-12-18T01:30:02.634Z,25.80
2018-12-18T01:31:02.594Z,26.20
2018-12-18T01:32:02.578Z,25.80
2018-12-18T01:33:02.550Z,25.20
2018-12-18T01:34:02.615Z,25.30
2018-12-18T01:35:02.579Z,25.30
2018-12-18T01:36:02.605Z,25.90
2018-12-18T01:37:02.536Z,25.50
2018-12-18T01:38:02.542Z,25.40
2018-12-18T01:39:02.494Z,25.30
2018-12-18T01:40:02.507Z,26.10
2018-12-18T01:41:02.470Z,25.90
2018-12-18T01:42:02.458Z,25.50
2018-12-18T01:43:02.469Z,25.50
2018-12-18T01:44:02.479Z,25.60
2018-12-18T01:45:02.427Z,25.50
2018-12-18T01:46:02.420Z,26.10
2018-12-18T01:47:02.407Z,26.10
2018-12-18T01:48:02.408Z,25.60
2018-12-18T01:49:02.429Z,25.50
2018-12-18T01:50:02.400Z,25.30
2018-12-18T01:51:02.406Z,24.80
2018-12-18T01:52:02.356Z,25.80
2018-12-18T01:53:02.378Z,25.20
2018-12-18T01:54:02.333Z,25.20
2018-12-18T01:55:02.352Z,25.40
2018-12-18T01:56:02.310Z,25.50
2018-12-18T01:57:02.290Z,27.00
2018-12-18T01:58:02.292Z,26.70
2018-12-18T01:59:02.291Z,26.30
2018-12-18T02:00:02.321Z,27.00
2018-12-18T02:01:02.293Z,27.20
2018-12-18T02:02:02.254Z,27.10
2018-12-18T02:03:02.280Z,27.40
2018-12-18T02:04:05.954Z,28.20
2018-12-18T02:05:02.245Z,27.60
2018-12-18T02:06:02.242Z,27.40
2018-12-18T02:07:02.229Z,28.70
2018-12-18T02:08:02.277Z,30.30
2018-12-18T02:09:02.172Z,31.00
2018-12-18T02:10:02.188Z,31.30
2018-12-18T02:11:02.169Z,31.90
2018-12-18T02:12:02.205Z,32.70
2018-12-18T02:13:02.128Z,33.50
2018-12-18T02:14:02.132Z,34.20
2018-12-18T02:15:02.128Z,33.70
2018-12-18T02:16:02.182Z,34.00
2018-12-18T02:17:02.121Z,33.80
2018-12-18T02:18:03.149Z,34.20
2018-12-18T02:19:02.104Z,34.10
2018-12-18T02:20:02.070Z,35.30
2018-12-18T02:21:02.068Z,34.90
2018-12-18T02:22:02.115Z,34.60
2018-12-18T02:23:02.031Z,34.20
2018-12-18T02:24:02.025Z,35.30
2018-12-18T02:25:02.028Z,33.80
2018-12-18T02:26:02.015Z,34.90
2018-12-18T02:27:01.998Z,34.70
2018-12-18T02:28:02.009Z,33.70
2018-12-18T02:29:01.995Z,31.20
2018-12-18T02:30:01.987Z,32.10
2018-12-18T02:31:01.988Z,31.50
2018-12-18T02:32:01.945Z,31.50
2018-12-18T02:33:01.962Z,31.70
2018-12-18T02:34:01.971Z,31.50
2018-12-18T02:35:01.924Z,30.50
2018-12-18T02:36:01.930Z,30.00
2018-12-18T02:37:01.880Z,29.30
2018-12-18T02:38:01.900Z,28.80
2018-12-18T02:39:01.870Z,29.20
2018-12-18T02:40:01.897Z,28.60
2018-12-18T02:41:01.853Z,28.50
2018-12-18T02:42:01.858Z,28.90
2018-12-18T02:43:01.868Z,29.10
2018-12-18T02:44:01.825Z,28.20
2018-12-18T02:45:01.825Z,27.90
2018-12-18T02:46:01.796Z,28.80
2018-12-18T02:47:01.801Z,29.00
2018-12-18T02:48:01.811Z,27.80
2018-12-18T02:49:01.799Z,27.80
2018-12-18T02:50:01.806Z,27.70
2018-12-18T02:51:01.762Z,27.00
2018-12-18T02:52:01.766Z,29.10
2018-12-18T02:53:01.731Z,27.60
2018-12-18T02:54:01.816Z,28.30
2018-12-18T02:55:01.753Z,28.60
2018-12-18T02:56:01.701Z,28.80
2018-12-18T02:57:01.689Z,28.90
2018-12-18T02:58:01.702Z,28.30
2018-12-18T02:59:01.660Z,28.40
2018-12-18T03:00:01.678Z,28.30
2018-12-18T03:01:01.641Z,29.20
2018-12-18T03:02:01.641Z,29.10
2018-12-18T03:03:01.627Z,28.50
2018-12-18T03:04:01.637Z,29.00
2018-12-18T03:05:01.648Z,29.00
2018-12-18T03:06:01.597Z,29.10
2018-12-18T03:07:01.605Z,28.90
2018-12-18T03:08:01.584Z,29.10
2018-12-18T03:09:01.574Z,28.20
2018-12-18T03:10:01.566Z,28.50
2018-12-18T03:11:01.585Z,29.70
2018-12-18T03:12:01.557Z,28.30
2018-12-18T03:13:01.529Z,28.10
2018-12-18T03:14:01.514Z,28.70
2018-12-18T03:15:01.502Z,28.10
2018-12-18T03:16:01.489Z,28.90
2018-12-18T03:17:01.535Z,28.40
2018-12-18T03:18:01.502Z,28.20
2018-12-18T03:19:01.476Z,27.90
2018-12-18T03:20:01.456Z,27.90
2018-12-18T03:21:01.483Z,27.90
2018-12-18T03:22:01.444Z,28.20
2018-12-18T03:23:01.418Z,27.90
2018-12-18T03:24:01.415Z,28.40
2018-12-18T03:25:01.445Z,27.80
2018-12-18T03:26:01.375Z,28.00
2018-12-18T03:27:01.375Z,27.90
2018-12-18T03:28:01.390Z,28.20
2018-12-18T03:29:01.349Z,27.60
2018-12-18T03:30:01.407Z,28.40
2018-12-18T03:31:01.334Z,27.90
2018-12-18T03:32:01.335Z,27.60
2018-12-18T03:33:01.374Z,27.70
2018-12-18T03:34:01.297Z,27.30
2018-12-18T03:35:01.346Z,27.70
2018-12-18T03:36:01.287Z,27.80
2018-12-18T03:37:01.275Z,27.50
2018-12-18T03:38:01.252Z,27.60
2018-12-18T03:39:01.250Z,27.20
2018-12-18T03:40:01.214Z,27.00
2018-12-18T03:41:01.281Z,27.20
2018-12-18T03:42:01.195Z,27.20
2018-12-18T03:43:01.203Z,27.60
2018-12-18T03:44:01.177Z,28.00
2018-12-18T03:45:01.193Z,27.20
2018-12-18T03:46:01.198Z,28.40
2018-12-18T03:47:01.222Z,27.30
2018-12-18T03:48:01.146Z,27.00
2018-12-18T03:49:01.159Z,27.70
2018-12-18T03:50:01.210Z,27.40
2018-12-18T03:51:01.123Z,27.10
2018-12-18T03:52:01.130Z,27.70
2018-12-18T03:53:01.118Z,28.10
2018-12-18T03:54:01.153Z,28.60
2018-12-18T03:55:01.089Z,28.70
2018-12-18T03:56:01.061Z,28.40
2018-12-18T03:57:01.091Z,28.00
2018-12-18T03:58:01.057Z,28.60
2018-12-18T03:59:01.076Z,28.00
2018-12-18T04:00:01.018Z,28.80
2018-12-18T04:01:01.028Z,28.00
2018-12-18T04:02:01.003Z,30.60
2018-12-18T04:03:01.024Z,30.50
2018-12-18T04:04:00.984Z,28.60
2018-12-18T04:05:01.012Z,28.00
2018-12-18T04:06:00.992Z,28.90
2018-12-18T04:07:00.990Z,29.10
2018-12-18T04:08:00.993Z,29.30
2018-12-18T04:09:00.951Z,29.00
2018-12-18T04:10:00.918Z,29.80
2018-12-18T04:11:00.933Z,27.90
2018-12-18T04:12:00.887Z,28.30
2018-12-18T04:13:00.903Z,29.00
2018-12-18T04:14:00.946Z,28.30
2018-12-18T04:15:00.929Z,28.70
2018-12-18T04:16:00.905Z,29.00
2018-12-18T04:17:00.871Z,29.90
2018-12-18T04:18:00.839Z,29.00
2018-12-18T04:19:00.883Z,29.60
2018-12-18T04:20:00.849Z,29.40
2018-12-18T04:21:00.838Z,28.90
2018-12-18T04:22:00.787Z,29.30
2018-12-18T04:23:00.807Z,30.80
2018-12-18T04:24:00.814Z,29.00
2018-12-18T04:25:00.786Z,29.30
2018-12-18T04:26:00.804Z,30.20
2018-12-18T04:27:00.771Z,30.10
2018-12-18T04:28:00.738Z,30.20
2018-12-18T04:29:00.756Z,29.50
2018-12-18T04:30:00.765Z,30.60
2018-12-18T04:31:00.831Z,30.90
2018-12-18T04:32:00.732Z,29.80
2018-12-18T04:33:00.704Z,30.40
2018-12-18T04:34:00.691Z,30.20
2018-12-18T04:35:00.656Z,31.00
2018-12-18T04:36:00.683Z,31.60
2018-12-18T04:37:00.665Z,31.70
2018-12-18T04:38:00.644Z,32.10
2018-12-18T04:39:00.623Z,33.00
2018-12-18T04:40:00.642Z,33.00
2018-12-18T04:41:00.799Z,31.90
2018-12-18T04:42:00.625Z,33.30
2018-12-18T04:43:00.588Z,32.60
2018-12-18T04:44:00.595Z,31.70
2018-12-18T04:45:00.610Z,32.20
2018-12-18T04:46:00.552Z,31.80
2018-12-18T04:47:00.599Z,32.80
2018-12-18T04:48:00.541Z,31.80
2018-12-18T04:49:00.541Z,32.90
2018-12-18T04:50:00.518Z,31.40
2018-12-18T04:51:00.553Z,33.60
2018-12-18T04:52:00.506Z,32.00
2018-12-18T04:53:00.509Z,32.90
2018-12-18T04:54:00.484Z,33.80
2018-12-18T04:55:00.485Z,31.40
2018-12-18T04:56:00.463Z,32.80
2018-12-18T04:57:00.443Z,33.60
2018-12-18T04:58:00.454Z,32.40
2018-12-18T04:59:00.465Z,31.40
2018-12-18T05:00:00.426Z,32.70
2018-12-18T05:01:00.457Z,33.90
2018-12-18T05:02:00.418Z,32.30
2018-12-18T05:03:00.385Z,33.00
2018-12-18T05:04:00.411Z,34.20
2018-12-18T05:05:00.417Z,32.40
2018-12-18T05:06:00.413Z,31.90
2018-12-18T05:07:00.341Z,31.70
2018-12-18T05:08:00.345Z,33.20
2018-12-18T05:09:00.337Z,31.60
2018-12-18T05:10:00.349Z,33.30
2018-12-18T05:11:00.315Z,31.80
2018-12-18T05:12:09.761Z,32.50
2018-12-18T05:13:00.279Z,33.90
2018-12-18T05:14:00.259Z,33.10
2018-12-18T05:15:00.245Z,33.30
2018-12-18T05:16:00.238Z,32.30
2018-12-18T05:17:00.247Z,32.80
2018-12-18T05:18:00.223Z,33.00
2018-12-18T05:19:00.215Z,32.90
2018-12-18T05:20:00.176Z,33.20
2018-12-18T05:21:00.170Z,33.40
2018-12-18T05:22:00.180Z,32.60
2018-12-18T05:23:00.158Z,33.60
2018-12-18T05:24:00.179Z,33.80
2018-12-18T05:25:00.165Z,31.60
2018-12-18T05:26:00.144Z,32.60
2018-12-18T05:27:00.109Z,32.30
2018-12-18T05:28:00.107Z,31.70
2018-12-18T05:29:00.149Z,32.50
2018-12-18T05:30:00.077Z,32.10
2018-12-18T05:31:00.080Z,34.40
2018-12-18T05:32:00.066Z,31.40
2018-12-18T05:33:00.066Z,32.60
2018-12-18T05:34:00.061Z,32.80
2018-12-18T05:35:00.046Z,33.00
2018-12-18T05:36:00.029Z,34.20
2018-12-18T05:37:00.040Z,33.10
2018-12-18T05:37:59.991Z,32.80
2018-12-18T05:39:00.017Z,33.70
2018-12-18T05:40:00.005Z,33.80
2018-12-18T05:40:59.990Z,33.20
2018-12-18T05:41:59.974Z,32.00
2018-12-18T05:42:59.950Z,34.10
2018-12-18T05:43:59.959Z,34.00
2018-12-18T05:44:59.967Z,34.10
2018-12-18T05:45:59.922Z,34.80
2018-12-18T05:46:59.913Z,34.60
2018-12-18T05:47:59.916Z,35.20
2018-12-18T05:48:59.890Z,33.30
2018-12-18T05:49:59.904Z,33.70
2018-12-18T05:50:59.908Z,34.20
2018-12-18T05:51:59.866Z,34.30
2018-12-18T05:52:59.864Z,33.20
2018-12-18T05:53:59.847Z,33.30
2018-12-18T05:54:59.830Z,33.30
2018-12-18T05:55:59.825Z,31.10
2018-12-18T05:56:59.826Z,33.00
2018-12-18T05:57:59.798Z,33.60
2018-12-18T05:58:59.797Z,31.60
2018-12-18T05:59:59.812Z,32.90
2018-12-18T06:00:59.758Z,31.60
2018-12-18T06:01:59.759Z,33.20
2018-12-18T06:02:59.756Z,32.70
2018-12-18T06:03:59.755Z,33.20
2018-12-18T06:05:03.245Z,32.50
2018-12-18T06:05:59.756Z,33.70
2018-12-18T06:06:59.757Z,34.30
2018-12-18T06:07:59.708Z,35.20
2018-12-18T06:08:59.682Z,35.70
2018-12-18T06:09:59.679Z,34.60
2018-12-18T06:10:59.674Z,34.40
2018-12-18T06:11:59.647Z,32.50
2018-12-18T06:12:59.696Z,32.90
2018-12-18T06:13:59.652Z,34.20
2018-12-18T06:14:59.639Z,34.50
2018-12-18T06:15:59.633Z,33.20
2018-12-18T06:16:59.591Z,32.30
2018-12-18T06:17:59.589Z,33.60
2018-12-18T06:18:59.604Z,31.10
2018-12-18T06:19:59.566Z,34.80
2018-12-18T06:20:59.585Z,34.00
2018-12-18T06:21:59.562Z,33.10
2018-12-18T06:22:59.563Z,35.50
2018-12-18T06:23:59.548Z,33.50
2018-12-18T06:24:59.511Z,30.80
2018-12-18T06:25:59.510Z,33.70
2018-12-18T06:26:59.506Z,33.50
2018-12-18T06:27:59.498Z,32.40
2018-12-18T06:28:59.530Z,32.80
2018-12-18T06:29:59.472Z,33.90
2018-12-18T06:30:59.483Z,31.40
2018-12-18T06:31:59.461Z,30.50
2018-12-18T06:32:59.433Z,33.10
2018-12-18T06:33:59.435Z,32.60
2018-12-18T06:34:59.459Z,31.70
2018-12-18T06:35:59.436Z,32.10
2018-12-18T06:36:59.401Z,33.60
2018-12-18T06:37:59.398Z,32.20
2018-12-18T06:38:59.385Z,31.00
2018-12-18T06:39:59.402Z,30.90
2018-12-18T06:40:59.350Z,31.60
2018-12-18T06:41:59.336Z,30.30
2018-12-18T06:42:59.338Z,31.10
2018-12-18T06:43:59.340Z,31.00
2018-12-18T06:44:59.343Z,31.20
2018-12-18T06:45:59.392Z,30.50
2018-12-18T06:46:59.302Z,31.30
2018-12-18T06:47:59.295Z,31.50
2018-12-18T06:48:59.294Z,31.10
2018-12-18T06:49:59.276Z,32.10
2018-12-18T06:50:59.284Z,30.90
2018-12-18T06:51:59.335Z,30.50
2018-12-18T06:52:59.259Z,31.50
2018-12-18T06:53:59.243Z,30.40
2018-12-18T06:54:59.229Z,29.70
2018-12-18T06:55:59.220Z,31.30
2018-12-18T06:56:59.230Z,30.00
2018-12-18T06:57:59.185Z,31.10
2018-12-18T06:58:59.179Z,31.60
2018-12-18T06:59:59.174Z,31.50
2018-12-18T07:00:59.184Z,31.70
2018-12-18T07:01:59.195Z,34.10
2018-12-18T07:02:59.133Z,33.80
2018-12-18T07:03:59.114Z,32.60
2018-12-18T07:04:59.117Z,33.60
2018-12-18T07:05:59.092Z,32.50
2018-12-18T07:06:59.124Z,31.90
2018-12-18T07:07:59.113Z,32.60
2018-12-18T07:08:59.090Z,32.80
2018-12-18T07:09:59.073Z,33.00
2018-12-18T07:10:59.067Z,32.60
2018-12-18T07:11:59.068Z,33.00
2018-12-18T07:12:59.076Z,32.90
2018-12-18T07:13:59.023Z,33.40
2018-12-18T07:14:59.064Z,33.50
2018-12-18T07:15:58.992Z,32.70
2018-12-18T07:16:59.006Z,33.60
2018-12-18T07:17:58.998Z,32.00
2018-12-18T07:18:59.014Z,33.00
2018-12-18T07:19:58.971Z,32.70
2018-12-18T07:20:58.961Z,33.60
2018-12-18T07:21:58.939Z,33.50
2018-12-18T07:22:58.935Z,34.00
2018-12-18T07:23:58.917Z,33.70
2018-12-18T07:24:58.911Z,33.70
2018-12-18T07:25:58.889Z,35.90
2018-12-18T07:26:58.902Z,34.00
2018-12-18T07:27:58.908Z,33.30
2018-12-18T07:28:58.879Z,33.10
2018-12-18T07:29:58.877Z,32.60
2018-12-18T07:30:58.857Z,31.20
2018-12-18T07:31:58.846Z,33.00
2018-12-18T07:32:58.855Z,32.70
2018-12-18T07:33:58.832Z,33.30
2018-12-18T07:34:58.839Z,32.60
2018-12-18T07:35:58.826Z,32.50
2018-12-18T07:36:58.789Z,32.60
2018-12-18T07:37:58.790Z,33.60
2018-12-18T07:38:58.769Z,33.00
2018-12-18T07:39:58.750Z,33.30
2018-12-18T07:40:58.758Z,33.40
2018-12-18T07:41:58.740Z,31.80
2018-12-18T07:42:58.746Z,32.90
2018-12-18T07:43:58.727Z,33.40
2018-12-18T07:44:58.749Z,32.50
2018-12-18T07:45:58.728Z,33.70
2018-12-18T07:46:58.809Z,34.30
2018-12-18T07:47:58.678Z,33.50
2018-12-18T07:48:58.667Z,33.70
2018-12-18T07:49:58.671Z,32.50
2018-12-18T07:50:58.673Z,31.90
2018-12-18T07:51:58.626Z,32.10
2018-12-18T07:52:58.638Z,32.00
2018-12-18T07:53:58.609Z,32.00
2018-12-18T07:54:58.617Z,33.10
2018-12-18T07:56:00.315Z,33.40
2018-12-18T07:56:58.604Z,32.20
2018-12-18T07:57:58.566Z,32.20
2018-12-18T07:58:59.168Z,32.40
2018-12-18T07:59:58.550Z,31.30
2018-12-18T08:00:58.540Z,30.50
2018-12-18T08:01:58.556Z,30.50
2018-12-18T08:02:58.539Z,31.30
2018-12-18T08:03:58.551Z,30.00
2018-12-18T08:04:58.502Z,31.30
2018-12-18T08:05:58.499Z,31.50
2018-12-18T08:06:58.480Z,30.60
2018-12-18T08:07:58.476Z,30.60
2018-12-18T08:08:58.470Z,30.90
2018-12-18T08:09:58.481Z,30.50
2018-12-18T08:10:58.435Z,29.60
2018-12-18T08:11:58.420Z,30.50
2018-12-18T08:12:58.427Z,31.30
2018-12-18T08:13:58.425Z,31.20
2018-12-18T08:14:58.380Z,31.40
2018-12-18T08:15:58.430Z,31.50
2018-12-18T08:16:58.405Z,31.70
2018-12-18T08:17:58.366Z,31.20
2018-12-18T08:18:58.356Z,30.40
2018-12-18T08:19:58.354Z,31.40
2018-12-18T08:20:58.331Z,31.10
2018-12-18T08:21:58.341Z,31.10
2018-12-18T08:22:58.307Z,30.90
2018-12-18T08:23:58.369Z,32.30
2018-12-18T08:24:58.303Z,30.40
2018-12-18T08:25:58.282Z,31.00
2018-12-18T08:26:58.291Z,31.20
2018-12-18T08:27:58.254Z,31.80
2018-12-18T08:28:58.246Z,30.60
2018-12-18T08:29:58.251Z,30.90
2018-12-18T08:30:58.305Z,30.90
2018-12-18T08:31:58.262Z,32.20
2018-12-18T08:32:58.263Z,31.80
2018-12-18T08:33:58.181Z,32.40
2018-12-18T08:34:58.172Z,31.80
2018-12-18T08:35:58.163Z,32.10
2018-12-18T08:36:58.178Z,32.10
2018-12-18T08:37:58.166Z,30.40
2018-12-18T08:38:58.130Z,31.10
2018-12-18T08:39:58.706Z,31.20
2018-12-18T08:40:58.109Z,31.10
2018-12-18T08:41:58.121Z,30.10
2018-12-18T08:42:58.153Z,31.20
2018-12-18T08:43:58.089Z,29.90
2018-12-18T08:44:58.053Z,29.80
2018-12-18T08:45:58.056Z,30.50
2018-12-18T08:46:58.073Z,30.70
2018-12-18T08:47:58.053Z,30.60
2018-12-18T08:48:58.195Z,31.20
2018-12-18T08:50:00.874Z,30.10
2018-12-18T08:50:58.713Z,30.20
2018-12-18T08:51:58.080Z,31.80
2018-12-18T08:52:57.994Z,30.60
2018-12-18T08:53:57.963Z,29.70
2018-12-18T08:54:58.145Z,29.30
2018-12-18T08:55:57.966Z,30.80
2018-12-18T08:56:58.036Z,29.20
2018-12-18T08:57:58.718Z,29.80
2018-12-18T08:58:57.953Z,29.50
2018-12-18T08:59:57.995Z,30.10
2018-12-18T09:00:57.936Z,29.30
2018-12-18T09:01:57.916Z,29.40
2018-12-18T09:02:58.004Z,29.50
2018-12-18T09:03:57.873Z,29.60
2018-12-18T09:04:57.853Z,29.70
2018-12-18T09:05:58.038Z,29.10
2018-12-18T09:06:57.832Z,30.40
2018-12-18T09:07:57.826Z,29.90
2018-12-18T09:08:58.740Z,31.00
2018-12-18T09:09:57.842Z,30.40
2018-12-18T09:10:57.793Z,29.60
2018-12-18T09:11:57.856Z,29.10
2018-12-18T09:13:06.864Z,29.20
2018-12-18T09:13:57.747Z,30.10
2018-12-18T09:14:57.740Z,29.10
2018-12-18T09:15:57.749Z,28.10
2018-12-18T09:16:57.746Z,27.70
2018-12-18T09:17:57.698Z,28.10
2018-12-18T09:18:57.802Z,29.30
2018-12-18T09:19:57.714Z,28.90
2018-12-18T09:20:57.773Z,28.80
2018-12-18T09:21:57.672Z,29.10
2018-12-18T09:22:57.656Z,29.20
2018-12-18T09:23:57.930Z,28.90
2018-12-18T09:24:57.651Z,28.50
2018-12-18T09:25:57.640Z,29.40
2018-12-18T09:26:57.659Z,29.40
2018-12-18T09:27:57.668Z,28.70
2018-12-18T09:28:57.659Z,28.20
2018-12-18T09:29:57.629Z,27.10
2018-12-18T09:30:57.663Z,27.50
2018-12-18T09:31:57.604Z,27.30
2018-12-18T09:32:57.680Z,27.30
2018-12-18T09:33:57.630Z,27.40
2018-12-18T09:34:57.576Z,27.80
2018-12-18T09:35:57.549Z,27.20
2018-12-18T09:36:57.550Z,26.20
2018-12-18T09:37:57.560Z,27.50
2018-12-18T09:38:57.531Z,26.30
2018-12-18T09:39:57.504Z,27.00
2018-12-18T09:40:57.507Z,26.40
2018-12-18T09:41:57.526Z,26.90
2018-12-18T09:42:57.480Z,25.40
2018-12-18T09:43:57.483Z,26.50
2018-12-18T09:44:57.445Z,26.10
2018-12-18T09:45:57.472Z,25.50
2018-12-18T09:46:57.418Z,25.50
2018-12-18T09:47:57.412Z,26.10
2018-12-18T09:48:57.437Z,25.60
2018-12-18T09:49:57.403Z,25.50
2018-12-18T09:50:57.393Z,26.00
2018-12-18T09:51:57.387Z,25.80
2018-12-18T09:52:57.392Z,25.60
2018-12-18T09:53:57.379Z,25.70
2018-12-18T09:54:57.387Z,25.60
2018-12-18T09:55:57.335Z,25.10
2018-12-18T09:56:57.304Z,25.10
2018-12-18T09:57:57.353Z,25.30
2018-12-18T09:58:57.412Z,25.10
2018-12-18T09:59:57.387Z,24.60
2018-12-18T10:00:57.287Z,25.00
2018-12-18T10:01:57.272Z,24.50
2018-12-18T10:02:57.283Z,24.20
2018-12-18T10:03:57.260Z,23.50
2018-12-18T10:04:57.283Z,24.20
2018-12-18T10:05:57.244Z,25.00
2018-12-18T10:06:57.221Z,24.20
2018-12-18T10:07:57.197Z,24.80
2018-12-18T10:08:57.213Z,24.70
2018-12-18T10:09:57.181Z,24.40
2018-12-18T10:10:57.222Z,24.70
2018-12-18T10:11:57.167Z,24.30
2018-12-18T10:12:57.164Z,24.70
2018-12-18T10:13:57.188Z,24.00
2018-12-18T10:14:57.140Z,24.20
2018-12-18T10:15:57.147Z,24.10
2018-12-18T10:16:57.106Z,24.60
2018-12-18T10:17:57.104Z,23.60
2018-12-18T10:19:05.913Z,24.00
2018-12-18T10:19:57.089Z,23.70
2018-12-18T10:21:06.374Z,23.60
2018-12-18T10:21:57.062Z,23.60
2018-12-18T10:22:57.037Z,23.50
2018-12-18T10:23:57.071Z,24.40
2018-12-18T10:24:57.047Z,23.50
2018-12-18T10:25:57.034Z,23.80
2018-12-18T10:27:04.572Z,23.90
2018-12-18T10:27:56.982Z,23.50
2018-12-18T10:28:57.009Z,23.80
2018-12-18T10:29:56.964Z,23.80
2018-12-18T10:30:56.995Z,23.40
2018-12-18T10:31:57.023Z,24.10
2018-12-18T10:32:56.938Z,24.20
2018-12-18T10:33:56.965Z,23.20
2018-12-18T10:34:57.016Z,24.30
2018-12-18T10:36:02.832Z,24.00
2018-12-18T10:36:57.936Z,24.00
2018-12-18T10:37:56.941Z,24.20
2018-12-18T10:38:56.911Z,23.70
2018-12-18T10:39:56.937Z,23.90
2018-12-18T10:40:56.945Z,23.80
2018-12-18T10:41:56.869Z,23.70
2018-12-18T10:42:57.853Z,24.60
2018-12-18T10:43:56.879Z,24.10
2018-12-18T10:44:56.839Z,24.20
2018-12-18T10:45:56.807Z,22.60
2018-12-18T10:46:56.798Z,23.50
2018-12-18T10:47:56.827Z,22.70
2018-12-18T10:48:56.808Z,23.80
2018-12-18T10:49:56.778Z,22.40
2018-12-18T10:50:56.829Z,23.10
2018-12-18T10:51:56.756Z,23.00
2018-12-18T10:52:56.770Z,22.10
2018-12-18T10:53:56.796Z,22.90
2018-12-18T10:54:56.752Z,22.80
2018-12-18T10:55:56.740Z,22.50
2018-12-18T10:56:56.723Z,22.60
2018-12-18T10:57:56.683Z,22.40
2018-12-18T10:58:56.727Z,22.70
2018-12-18T10:59:56.827Z,22.30
2018-12-18T11:00:57.356Z,22.90
2018-12-18T11:01:56.656Z,23.20
2018-12-18T11:02:56.663Z,22.70
2018-12-18T11:03:56.657Z,22.80
2018-12-18T11:04:56.663Z,23.10
2018-12-18T11:05:56.621Z,23.10
2018-12-18T11:06:56.617Z,22.60
2018-12-18T11:07:56.583Z,22.70
2018-12-18T11:08:56.679Z,22.70
2018-12-18T11:09:56.670Z,22.60
2018-12-18T11:10:56.633Z,22.90
2018-12-18T11:11:56.624Z,23.70
2018-12-18T11:12:56.569Z,23.80
2018-12-18T11:13:56.559Z,24.00
2018-12-18T11:14:56.516Z,23.50
2018-12-18T11:15:57.464Z,24.40
2018-12-18T11:16:56.524Z,24.00
2018-12-18T11:17:56.454Z,24.20
2018-12-18T11:18:56.456Z,23.60
2018-12-18T11:19:56.502Z,23.30
2018-12-18T11:20:56.489Z,23.80
2018-12-18T11:21:56.463Z,23.00
2018-12-18T11:22:56.501Z,22.80
2018-12-18T11:23:56.438Z,23.00
2018-12-18T11:24:56.463Z,23.00
2018-12-18T11:25:56.401Z,22.60
2018-12-18T11:26:56.393Z,23.00
2018-12-18T11:27:56.410Z,22.80
2018-12-18T11:28:56.493Z,23.00
2018-12-18T11:29:56.424Z,23.00
2018-12-18T11:30:56.361Z,23.00
2018-12-18T11:31:56.395Z,23.10
2018-12-18T11:32:56.325Z,22.80
2018-12-18T11:33:56.328Z,22.60
2018-12-18T11:34:56.393Z,22.70
2018-12-18T11:35:56.321Z,23.40
2018-12-18T11:36:56.390Z,22.70
2018-12-18T11:37:56.355Z,23.50
2018-12-18T11:38:56.334Z,23.40
2018-12-18T11:39:56.263Z,23.70
2018-12-18T11:40:56.240Z,23.30
2018-12-18T11:41:56.290Z,23.50
2018-12-18T11:42:56.244Z,24.20
2018-12-18T11:43:56.209Z,23.20
2018-12-18T11:44:56.234Z,23.10
2018-12-18T11:45:56.205Z,23.20
2018-12-18T11:46:56.179Z,23.50
2018-12-18T11:47:56.230Z,22.80
2018-12-18T11:48:56.166Z,23.40
2018-12-18T11:49:56.192Z,24.20
2018-12-18T11:50:56.162Z,23.30
2018-12-18T11:51:56.107Z,24.00
2018-12-18T11:52:56.165Z,23.30
2018-12-18T11:53:56.112Z,24.10
2018-12-18T11:54:56.094Z,23.40
2018-12-18T11:55:56.088Z,23.90
2018-12-18T11:56:56.102Z,23.40
2018-12-18T11:57:56.121Z,23.70
2018-12-18T11:58:56.054Z,23.90
2018-12-18T11:59:56.045Z,23.10
2018-12-18T12:00:56.021Z,23.10
2018-12-18T12:01:56.046Z,22.80
2018-12-18T12:02:56.037Z,22.50
2018-12-18T12:03:56.078Z,22.80
2018-12-18T12:04:56.057Z,22.30
2018-12-18T12:05:56.074Z,22.40
2018-12-18T12:06:56.065Z,22.10
2018-12-18T12:07:55.966Z,22.60
2018-12-18T12:08:55.956Z,22.60
2018-12-18T12:09:55.955Z,22.70
2018-12-18T12:10:55.935Z,22.60
2018-12-18T12:11:55.928Z,22.10
2018-12-18T12:12:55.925Z,22.80
2018-12-18T12:13:56.037Z,22.70
2018-12-18T12:14:55.946Z,22.40
2018-12-18T12:15:55.865Z,22.30
2018-12-18T12:16:56.035Z,22.70
2018-12-18T12:17:55.870Z,22.20
2018-12-18T12:18:55.839Z,21.10
2018-12-18T12:19:55.812Z,21.70
2018-12-18T12:20:55.860Z,21.10
2018-12-18T12:21:55.880Z,20.30
2018-12-18T12:22:55.789Z,20.90
2018-12-18T12:23:55.951Z,21.10
2018-12-18T12:24:55.753Z,21.50
2018-12-18T12:25:55.808Z,20.60
2018-12-18T12:26:55.793Z,22.40
2018-12-18T12:27:55.794Z,22.40
2018-12-18T12:28:55.719Z,21.30
2018-12-18T12:29:55.734Z,20.90
2018-12-18T12:30:55.762Z,20.90
2018-12-18T12:31:55.706Z,21.30
2018-12-18T12:32:55.741Z,21.10
2018-12-18T12:33:55.672Z,20.60
2018-12-18T12:34:55.679Z,20.30
2018-12-18T12:35:55.726Z,20.10
2018-12-18T12:36:55.654Z,20.20
2018-12-18T12:37:55.669Z,20.30
2018-12-18T12:38:55.612Z,20.60
2018-12-18T12:39:55.660Z,20.30
2018-12-18T12:40:55.736Z,20.30
2018-12-18T12:41:55.615Z,20.00
2018-12-18T12:42:55.712Z,20.20
2018-12-18T12:43:55.607Z,20.20
2018-12-18T12:44:55.617Z,20.00
2018-12-18T12:45:55.590Z,20.40
2018-12-18T12:46:55.591Z,20.60
2018-12-18T12:47:55.548Z,20.60
2018-12-18T12:48:55.564Z,20.10
2018-12-18T12:49:55.593Z,20.50
2018-12-18T12:50:56.372Z,20.70
2018-12-18T12:51:55.551Z,19.50